createdAt,value
2017-09-26T00:00:53.001Z,91.42
2017-09-26T00:03:21.366Z,91.27
2017-09-26T00:05:49.751Z,91.25
2017-09-26T00:08:18.142Z,91.39
2017-09-26T00:10:46.522Z,91.37
2017-09-26T00:13:14.903Z,91.55
2017-09-26T00:15:43.306Z,91.43
2017-09-26T00:18:11.662Z,91.21
2017-09-26T00:20:40.030Z,91.00
2017-09-26T00:23:08.423Z,91.42
2017-09-26T00:25:36.790Z,91.44
2017-09-26T00:28:05.177Z,91.59
2017-09-26T00:30:33.546Z,91.68
2017-09-26T00:33:01.949Z,91.44
2017-09-26T00:35:30.321Z,91.40
2017-09-26T00:37:58.693Z,91.27
2017-09-26T00:40:27.085Z,91.33
2017-09-26T00:42:55.445Z,91.43
2017-09-26T00:45:23.826Z,91.36
2017-09-26T00:47:52.217Z,91.08
2017-09-26T00:50:20.613Z,90.82
2017-09-26T00:52:48.978Z,90.58
2017-09-26T00:55:17.345Z,90.44
2017-09-26T00:57:46.510Z,90.13
2017-09-26T01:00:14.894Z,89.96
2017-09-26T01:02:43.265Z,90.08
2017-09-26T01:08:26.341Z,89.90
2017-09-26T01:10:54.702Z,89.89
2017-09-26T01:13:23.062Z,89.84
2017-09-26T01:15:51.435Z,89.49
2017-09-26T01:18:19.808Z,89.35
2017-09-26T01:20:48.210Z,89.41
2017-09-26T01:23:16.598Z,89.27
2017-09-26T01:25:44.965Z,89.08
2017-09-26T01:28:13.333Z,89.18
2017-09-26T01:30:41.698Z,89.10
2017-09-26T01:33:10.854Z,89.17
2017-09-26T01:35:39.217Z,89.27
2017-09-26T01:38:07.611Z,89.17
2017-09-26T01:40:53.749Z,89.20
2017-09-26T01:43:22.889Z,88.98
2017-09-26T01:45:51.262Z,88.91
2017-09-26T01:48:19.654Z,89.01
2017-09-26T01:50:48.021Z,88.82
2017-09-26T01:53:16.397Z,88.79
2017-09-26T01:55:44.771Z,88.65
2017-09-26T01:58:13.165Z,88.59
2017-09-26T02:00:42.308Z,88.69
2017-09-26T02:03:11.446Z,88.53
2017-09-26T02:05:39.813Z,88.60
2017-09-26T02:08:08.178Z,88.77
2017-09-26T02:10:36.555Z,88.71
2017-09-26T02:13:04.922Z,88.88
2017-09-26T02:15:34.048Z,89.05
2017-09-26T02:18:02.434Z,89.12
2017-09-26T02:20:30.814Z,89.33
2017-09-26T02:22:59.193Z,89.02
2017-09-26T02:25:27.554Z,88.90
2017-09-26T02:27:55.946Z,88.70
2017-09-26T02:30:24.318Z,88.50
2017-09-26T02:32:52.684Z,88.65
2017-09-26T02:35:21.130Z,88.50
2017-09-26T02:37:49.493Z,88.19
2017-09-26T02:40:17.865Z,88.44
2017-09-26T02:42:46.242Z,88.56
2017-09-26T02:45:14.626Z,88.31
2017-09-26T02:47:43.073Z,88.36
2017-09-26T02:50:11.462Z,88.07
2017-09-26T02:52:39.830Z,88.38
2017-09-26T02:55:08.198Z,88.38
2017-09-26T02:57:36.578Z,88.52
2017-09-26T03:00:04.941Z,88.81
2017-09-26T03:02:34.107Z,88.43
2017-09-26T03:05:02.477Z,88.57
2017-09-26T03:07:30.855Z,88.50
2017-09-26T03:09:59.233Z,88.28
2017-09-26T03:12:27.598Z,88.13
2017-09-26T03:14:55.985Z,88.24
2017-09-26T03:17:24.357Z,88.22
2017-09-26T03:19:52.752Z,88.05
2017-09-26T03:22:21.126Z,88.06
2017-09-26T03:24:49.494Z,88.05
2017-09-26T03:27:17.881Z,88.01
2017-09-26T03:29:46.242Z,87.93
2017-09-26T03:32:14.609Z,88.12
2017-09-26T03:34:42.969Z,89.08
2017-09-26T03:37:11.365Z,89.27
2017-09-26T03:39:39.741Z,89.49
2017-09-26T03:42:08.104Z,89.58
2017-09-26T03:44:36.477Z,89.77
2017-09-26T03:47:05.609Z,89.60
2017-09-26T03:49:33.984Z,89.63
2017-09-26T03:52:02.349Z,90.03
2017-09-26T03:54:30.748Z,90.00
2017-09-26T03:56:59.130Z,90.25
2017-09-26T03:59:27.494Z,90.03
2017-09-26T04:01:55.881Z,90.39
2017-09-26T04:04:24.245Z,89.99
2017-09-26T04:06:52.610Z,90.46
2017-09-26T04:09:21.016Z,90.80
2017-09-26T04:11:49.421Z,90.92
2017-09-26T04:14:17.785Z,90.96
2017-09-26T04:16:46.161Z,91.00
2017-09-26T04:19:14.551Z,91.24
2017-09-26T04:21:42.922Z,91.26
2017-09-26T04:24:11.324Z,90.98
2017-09-26T04:26:39.685Z,90.68
2017-09-26T04:29:08.060Z,91.03
2017-09-26T04:31:36.444Z,90.94
2017-09-26T04:34:04.801Z,90.71
2017-09-26T04:36:33.173Z,90.63
2017-09-26T04:39:01.541Z,90.20
2017-09-26T04:41:29.903Z,90.41
2017-09-26T04:43:58.281Z,90.06
2017-09-26T04:46:27.515Z,89.72
2017-09-26T04:48:55.894Z,89.93
2017-09-26T04:51:24.269Z,89.79
2017-09-26T04:53:52.660Z,89.50
2017-09-26T04:56:21.046Z,89.81
2017-09-26T04:58:49.409Z,89.57
2017-09-26T05:01:17.777Z,89.52
2017-09-26T05:03:46.089Z,89.28
2017-09-26T05:06:14.430Z,89.12
2017-09-26T05:08:42.738Z,89.02
2017-09-26T05:11:11.041Z,88.84
2017-09-26T05:13:39.393Z,88.87
2017-09-26T05:16:07.701Z,88.99
2017-09-26T05:18:36.803Z,88.91
2017-09-26T05:21:05.940Z,89.22
2017-09-26T05:23:34.291Z,89.85
2017-09-26T05:26:03.361Z,88.85
2017-09-26T05:28:31.688Z,89.15
2017-09-26T05:31:00.015Z,88.97
2017-09-26T05:33:28.327Z,89.04
2017-09-26T05:35:56.665Z,89.43
2017-09-26T05:38:24.970Z,89.40
2017-09-26T05:40:54.047Z,88.95
2017-09-26T05:43:22.369Z,89.01
2017-09-26T05:45:50.679Z,89.10
2017-09-26T05:48:19.023Z,89.10
2017-09-26T05:50:47.340Z,88.85
2017-09-26T05:53:15.653Z,88.62
2017-09-26T05:55:44.735Z,88.56
2017-09-26T05:58:13.813Z,88.05
2017-09-26T06:00:42.164Z,88.43
2017-09-26T06:03:10.469Z,88.38
2017-09-26T06:05:38.781Z,87.76
2017-09-26T06:08:07.100Z,87.82
2017-09-26T06:10:35.409Z,87.28
2017-09-26T06:13:03.732Z,87.57
2017-09-26T06:15:32.041Z,86.81
2017-09-26T06:18:00.377Z,86.82
2017-09-26T06:20:28.689Z,86.45
2017-09-26T06:22:57.002Z,85.90
2017-09-26T06:25:26.093Z,86.25
2017-09-26T06:27:55.178Z,86.57
2017-09-26T06:30:23.514Z,86.02
2017-09-26T06:32:51.826Z,86.10
2017-09-26T06:35:20.174Z,85.62
2017-09-26T06:37:48.498Z,85.75
2017-09-26T06:40:17.592Z,85.02
2017-09-26T06:42:46.697Z,85.02
2017-09-26T06:45:15.772Z,85.62
2017-09-26T06:47:44.086Z,85.22
2017-09-26T06:50:12.406Z,85.52
2017-09-26T06:52:40.714Z,85.81
2017-09-26T06:55:09.058Z,85.66
2017-09-26T06:57:37.358Z,85.11
2017-09-26T07:00:05.659Z,84.62
2017-09-26T07:02:34.749Z,84.27
2017-09-26T07:05:03.825Z,84.19
2017-09-26T07:07:32.165Z,84.55
2017-09-26T07:10:00.470Z,84.82
2017-09-26T07:12:28.777Z,85.10
2017-09-26T07:14:57.858Z,85.54
2017-09-26T07:17:26.182Z,85.30
2017-09-26T07:19:54.526Z,85.55
2017-09-26T07:22:23.602Z,86.38
2017-09-26T07:24:51.918Z,85.57
2017-09-26T07:27:20.997Z,86.63
2017-09-26T07:29:50.070Z,86.36
2017-09-26T07:32:18.434Z,86.29
2017-09-26T07:34:46.741Z,85.77
2017-09-26T07:37:15.888Z,84.86
2017-09-26T07:39:44.198Z,84.05
2017-09-26T07:42:12.509Z,84.03
2017-09-26T07:44:41.620Z,83.48
2017-09-26T07:47:09.925Z,83.42
2017-09-26T07:49:38.225Z,83.45
2017-09-26T07:52:06.556Z,81.83
2017-09-26T07:54:34.865Z,81.61
2017-09-26T07:57:03.474Z,81.20
2017-09-26T07:59:31.788Z,80.54
2017-09-26T08:02:00.315Z,80.44
2017-09-26T08:04:28.769Z,80.75
2017-09-26T08:06:57.277Z,80.73
2017-09-26T08:09:25.822Z,81.37
2017-09-26T08:11:54.125Z,81.44
2017-09-26T08:14:22.434Z,80.81
2017-09-26T08:16:50.755Z,81.25
2017-09-26T08:19:19.057Z,82.45
2017-09-26T08:21:47.405Z,82.79
2017-09-26T08:24:15.710Z,83.04
2017-09-26T08:26:44.018Z,82.26
2017-09-26T08:29:12.345Z,81.55
2017-09-26T08:31:40.646Z,80.64
2017-09-26T08:34:08.985Z,81.07
2017-09-26T08:36:37.307Z,80.45
2017-09-26T08:39:06.394Z,79.83
2017-09-26T08:41:34.713Z,80.77
2017-09-26T08:44:03.786Z,80.45
2017-09-26T08:46:32.126Z,79.81
2017-09-26T08:49:00.430Z,80.70
2017-09-26T08:51:28.748Z,80.48
2017-09-26T08:53:57.838Z,80.83
2017-09-26T08:56:26.913Z,80.07
2017-09-26T08:58:55.250Z,78.84
2017-09-26T09:01:23.558Z,77.97
2017-09-26T09:03:51.878Z,76.75
2017-09-26T09:06:20.965Z,74.61
2017-09-26T09:08:50.034Z,73.33
2017-09-26T09:11:18.370Z,70.17
2017-09-26T09:13:46.670Z,69.17
2017-09-26T09:16:14.977Z,69.46
2017-09-26T09:18:43.298Z,69.59
2017-09-26T09:21:11.605Z,68.06
2017-09-26T09:23:39.945Z,66.29
2017-09-26T09:26:08.246Z,64.63
2017-09-26T09:28:36.566Z,63.70
2017-09-26T09:31:04.882Z,62.23
2017-09-26T09:33:33.181Z,66.42
2017-09-26T09:36:01.533Z,66.17
2017-09-26T09:38:29.837Z,67.52
2017-09-26T09:40:58.148Z,65.62
2017-09-26T09:43:26.466Z,63.88
2017-09-26T09:45:54.788Z,61.10
2017-09-26T09:48:23.133Z,61.33
2017-09-26T09:50:51.441Z,60.94
2017-09-26T09:53:19.753Z,60.78
2017-09-26T09:55:48.833Z,62.17
2017-09-26T09:58:17.142Z,61.54
2017-09-26T10:00:45.487Z,63.50
2017-09-26T10:03:13.797Z,59.40
2017-09-26T10:05:42.098Z,58.80
2017-09-26T10:08:10.442Z,56.15
2017-09-26T10:10:38.753Z,57.44
2017-09-26T10:13:07.099Z,57.66
2017-09-26T10:15:35.405Z,56.37
2017-09-26T10:18:03.721Z,55.76
2017-09-26T10:20:32.037Z,57.55
2017-09-26T10:23:00.366Z,58.50
2017-09-26T10:25:28.702Z,59.27
2017-09-26T10:27:57.005Z,58.77
2017-09-26T10:30:25.324Z,59.99
2017-09-26T10:32:54.405Z,59.01
2017-09-26T10:35:22.717Z,56.94
2017-09-26T10:37:51.113Z,55.20
2017-09-26T10:40:19.421Z,53.11
2017-09-26T10:42:47.730Z,51.46
2017-09-26T10:45:16.810Z,51.29
2017-09-26T10:47:45.115Z,53.05
2017-09-26T10:50:13.457Z,50.23
2017-09-26T10:52:41.763Z,51.35
2017-09-26T10:55:10.834Z,53.52
2017-09-26T10:57:39.154Z,51.93
2017-09-26T11:00:07.471Z,52.34
2017-09-26T11:02:35.813Z,50.00
2017-09-26T11:05:04.122Z,48.31
2017-09-26T11:07:32.434Z,47.48
2017-09-26T11:10:00.765Z,48.03
2017-09-26T11:12:29.087Z,48.01
2017-09-26T11:14:57.438Z,50.45
2017-09-26T11:17:25.754Z,51.46
2017-09-26T11:19:54.826Z,50.93
2017-09-26T11:22:23.142Z,51.15
2017-09-26T11:24:51.451Z,49.99
2017-09-26T11:27:19.790Z,49.53
2017-09-26T11:29:48.875Z,50.19
2017-09-26T11:32:17.961Z,51.58
2017-09-26T11:34:46.282Z,50.55
2017-09-26T11:37:14.590Z,51.41
2017-09-26T11:39:42.930Z,52.89
2017-09-26T11:42:11.234Z,53.20
2017-09-26T11:44:40.309Z,52.71
2017-09-26T11:47:08.635Z,52.42
2017-09-26T11:49:36.945Z,52.15
2017-09-26T11:52:05.279Z,52.76
2017-09-26T11:54:33.589Z,53.00
2017-09-26T11:57:02.675Z,54.50
2017-09-26T11:59:31.759Z,53.76
2017-09-26T12:02:00.067Z,53.57
2017-09-26T12:04:28.413Z,54.29
2017-09-26T12:06:56.723Z,54.67
2017-09-26T12:09:25.797Z,55.29
2017-09-26T12:11:54.883Z,55.59
2017-09-26T12:14:23.199Z,54.99
2017-09-26T12:16:51.513Z,54.47
2017-09-26T12:19:20.585Z,56.00
2017-09-26T12:21:48.925Z,54.85
2017-09-26T12:24:18.002Z,54.03
2017-09-26T12:26:46.306Z,54.77
2017-09-26T12:29:15.402Z,54.76
2017-09-26T12:31:44.486Z,54.73
2017-09-26T12:34:13.593Z,54.57
2017-09-26T12:36:42.671Z,54.47
2017-09-26T12:39:10.978Z,54.00
2017-09-26T12:41:39.299Z,54.84
2017-09-26T12:44:07.613Z,54.98
2017-09-26T12:46:36.717Z,54.31
2017-09-26T12:49:05.786Z,55.50
2017-09-26T12:51:34.095Z,55.73
2017-09-26T12:54:02.410Z,55.55
2017-09-26T12:56:30.720Z,55.41
2017-09-26T12:58:59.600Z,53.88
2017-09-26T13:01:27.909Z,52.91
2017-09-26T13:03:56.987Z,56.00
2017-09-26T13:06:25.302Z,57.85
2017-09-26T13:08:53.609Z,57.90
2017-09-26T13:11:21.950Z,55.92
2017-09-26T13:13:50.278Z,53.77
2017-09-26T13:16:18.589Z,51.93
2017-09-26T13:18:47.681Z,51.14
2017-09-26T13:21:16.765Z,51.23
2017-09-26T13:23:45.115Z,51.48
2017-09-26T13:26:13.421Z,51.03
2017-09-26T13:28:41.721Z,49.91
2017-09-26T13:31:10.045Z,48.86
2017-09-26T13:33:38.361Z,47.71
2017-09-26T13:36:07.463Z,49.49
2017-09-26T13:38:36.531Z,48.07
2017-09-26T13:41:04.837Z,48.72
2017-09-26T13:43:33.926Z,48.98
2017-09-26T13:46:03.003Z,48.68
2017-09-26T13:48:31.350Z,51.05
2017-09-26T13:50:59.657Z,51.73
2017-09-26T13:53:27.965Z,52.83
2017-09-26T13:55:57.052Z,53.95
2017-09-26T13:58:26.122Z,50.38
2017-09-26T14:00:54.458Z,49.25
2017-09-26T14:03:22.761Z,48.32
2017-09-26T14:05:51.062Z,53.71
2017-09-26T14:08:20.150Z,62.45
2017-09-26T14:10:48.458Z,66.99
2017-09-26T14:13:16.799Z,68.64
2017-09-26T14:15:45.119Z,69.70
2017-09-26T14:18:13.430Z,70.10
2017-09-26T14:20:41.753Z,70.73
2017-09-26T14:23:10.829Z,70.08
2017-09-26T14:25:39.183Z,70.02
2017-09-26T14:28:07.495Z,69.12
2017-09-26T14:30:35.801Z,69.41
2017-09-26T14:33:04.123Z,68.81
2017-09-26T14:35:32.434Z,68.08
2017-09-26T14:38:01.546Z,66.77
2017-09-26T14:40:30.618Z,65.19
2017-09-26T14:42:58.926Z,64.93
2017-09-26T14:45:27.245Z,63.86
2017-09-26T14:47:55.567Z,64.85
2017-09-26T14:50:24.670Z,66.24
2017-09-26T14:52:53.006Z,63.85
2017-09-26T14:55:21.313Z,65.33
2017-09-26T14:57:50.399Z,65.22
2017-09-26T15:00:18.714Z,63.88
2017-09-26T15:02:47.073Z,62.88
2017-09-26T15:05:15.434Z,63.71
2017-09-26T15:07:43.742Z,63.91
2017-09-26T15:10:12.095Z,64.34
2017-09-26T15:12:40.374Z,64.18
2017-09-26T15:15:09.454Z,64.44
2017-09-26T15:17:37.764Z,64.56
2017-09-26T15:20:06.095Z,64.59
2017-09-26T15:22:34.401Z,65.52
2017-09-26T15:25:03.485Z,66.04
2017-09-26T15:27:31.800Z,66.36
2017-09-26T15:30:00.141Z,66.52
2017-09-26T15:32:28.450Z,67.43
2017-09-26T15:34:56.768Z,67.64
2017-09-26T15:37:25.081Z,67.26
2017-09-26T15:39:54.150Z,67.46
2017-09-26T15:42:22.469Z,67.80
2017-09-26T15:44:50.811Z,67.97
2017-09-26T15:47:19.133Z,68.19
2017-09-26T15:49:47.448Z,68.82
2017-09-26T15:52:15.766Z,69.04
2017-09-26T15:54:44.838Z,69.30
2017-09-26T15:57:13.174Z,69.49
2017-09-26T15:59:41.482Z,69.68
2017-09-26T16:02:09.795Z,69.94
2017-09-26T16:04:38.882Z,70.28
2017-09-26T16:07:07.970Z,70.53
2017-09-26T16:09:36.293Z,71.20
2017-09-26T16:12:04.598Z,70.96
2017-09-26T16:14:32.915Z,71.17
2017-09-26T16:17:01.997Z,70.87
2017-09-26T16:19:30.351Z,71.19
2017-09-26T16:21:58.678Z,71.46
2017-09-26T16:24:27.029Z,71.26
2017-09-26T16:26:55.385Z,71.50
2017-09-26T16:29:23.707Z,71.33
2017-09-26T16:31:52.835Z,71.33
2017-09-26T16:34:21.197Z,71.29
2017-09-26T16:36:49.557Z,70.21
2017-09-26T16:39:18.633Z,70.09
2017-09-26T16:41:46.974Z,69.62
2017-09-26T16:44:15.281Z,70.04
2017-09-26T16:46:43.585Z,69.28
2017-09-26T16:49:12.670Z,69.71
2017-09-26T16:51:41.746Z,69.46
2017-09-26T16:54:10.081Z,69.59
2017-09-26T16:56:38.464Z,69.71
2017-09-26T16:59:06.773Z,69.90
2017-09-26T17:01:35.090Z,70.35
2017-09-26T17:04:04.195Z,70.88
2017-09-26T17:06:32.506Z,71.22
2017-09-26T17:09:01.586Z,71.62
2017-09-26T17:11:29.902Z,71.48
2017-09-26T17:13:58.214Z,71.84
2017-09-26T17:16:26.534Z,72.22
2017-09-26T17:18:54.845Z,72.12
2017-09-26T17:21:23.169Z,72.27
2017-09-26T17:23:51.479Z,72.38
2017-09-26T17:26:19.795Z,72.73
2017-09-26T17:28:48.134Z,72.87
2017-09-26T17:31:16.492Z,73.45
2017-09-26T17:33:44.831Z,73.67
2017-09-26T17:36:13.908Z,73.88
2017-09-26T17:38:42.994Z,74.12
2017-09-26T17:41:11.314Z,74.54
2017-09-26T17:43:39.647Z,74.56
2017-09-26T17:46:07.958Z,75.20
2017-09-26T17:48:37.042Z,75.43
2017-09-26T17:51:06.118Z,75.72
2017-09-26T17:53:34.445Z,75.70
2017-09-26T17:56:02.755Z,75.81
2017-09-26T17:58:31.061Z,76.11
2017-09-26T18:01:00.146Z,76.28
2017-09-26T18:03:28.454Z,76.20
2017-09-26T18:05:56.797Z,76.60
2017-09-26T18:08:25.110Z,76.54
2017-09-26T18:10:53.433Z,76.49
2017-09-26T18:13:21.753Z,76.59
2017-09-26T18:15:50.870Z,76.82
2017-09-26T18:18:19.189Z,77.10
2017-09-26T18:20:47.549Z,76.81
2017-09-26T18:23:15.858Z,77.42
2017-09-26T18:25:44.179Z,77.43
2017-09-26T18:28:12.545Z,77.53
2017-09-26T18:30:41.618Z,77.46
2017-09-26T18:33:10.002Z,77.83
2017-09-26T18:35:38.377Z,78.22
2017-09-26T18:38:07.553Z,78.29
2017-09-26T18:40:35.912Z,78.51
2017-09-26T18:43:04.269Z,78.58
2017-09-26T18:45:32.643Z,78.77
2017-09-26T18:48:00.953Z,79.23
2017-09-26T18:50:29.334Z,79.80
2017-09-26T18:52:57.697Z,80.52
2017-09-26T18:55:26.075Z,81.17
2017-09-26T18:57:54.378Z,81.78
2017-09-26T19:00:22.714Z,82.60
2017-09-26T19:02:51.034Z,83.00
2017-09-26T19:05:19.432Z,83.40
2017-09-26T19:07:47.794Z,83.62
2017-09-26T19:10:16.168Z,84.02
2017-09-26T19:12:44.532Z,84.20
2017-09-26T19:15:12.900Z,84.00
2017-09-26T19:17:41.277Z,84.15
2017-09-26T19:20:09.640Z,84.18
2017-09-26T19:22:38.017Z,83.98
2017-09-26T19:25:06.382Z,84.16
2017-09-26T19:27:35.522Z,84.14
2017-09-26T19:30:03.890Z,84.21
2017-09-26T19:32:32.294Z,84.45
2017-09-26T19:35:00.657Z,84.59
2017-09-26T19:37:29.017Z,84.49
2017-09-26T19:39:57.384Z,84.27
2017-09-26T19:42:25.747Z,84.29
2017-09-26T19:44:54.888Z,84.25
2017-09-26T19:47:24.012Z,84.15
2017-09-26T19:49:52.368Z,84.17
2017-09-26T19:52:20.726Z,83.94
2017-09-26T19:54:49.102Z,83.75
2017-09-26T19:57:17.457Z,83.82
2017-09-26T19:59:46.615Z,83.53
2017-09-26T20:02:14.931Z,83.26
2017-09-26T20:04:43.315Z,83.32
2017-09-26T20:07:11.634Z,83.47
2017-09-26T20:09:40.001Z,83.63
2017-09-26T20:12:08.409Z,83.62
2017-09-26T20:14:36.774Z,83.35
2017-09-26T20:17:05.859Z,83.15
2017-09-26T20:19:34.213Z,83.22
2017-09-26T20:22:02.611Z,83.02
2017-09-26T20:24:30.918Z,82.98
2017-09-26T20:26:59.276Z,83.28
2017-09-26T20:29:28.421Z,83.55
2017-09-26T20:31:56.733Z,83.28
2017-09-26T20:34:25.053Z,83.25
2017-09-26T20:36:53.464Z,83.12
2017-09-26T20:39:22.552Z,83.08
2017-09-26T20:41:51.630Z,83.21
2017-09-26T20:44:19.942Z,83.08
2017-09-26T20:46:48.250Z,83.33
2017-09-26T20:49:16.600Z,83.08
2017-09-26T20:51:44.906Z,83.28
2017-09-26T20:54:13.219Z,83.12
2017-09-26T20:56:41.539Z,83.17
2017-09-26T20:59:09.920Z,83.35
2017-09-26T21:01:38.242Z,83.36
2017-09-26T21:04:06.564Z,83.40
2017-09-26T21:06:34.883Z,83.18
2017-09-26T21:09:03.198Z,83.41
2017-09-26T21:11:32.302Z,83.23
2017-09-26T21:14:01.371Z,83.40
2017-09-26T21:16:29.677Z,83.38
2017-09-26T21:18:58.002Z,83.55
2017-09-26T21:21:27.091Z,83.43
2017-09-26T21:23:55.427Z,83.54
2017-09-26T21:26:23.754Z,83.57
2017-09-26T21:28:52.080Z,83.49
2017-09-26T21:31:20.391Z,83.55
2017-09-26T21:33:48.718Z,83.49
2017-09-26T21:36:17.812Z,83.63
2017-09-26T21:38:46.137Z,83.64
2017-09-26T21:41:14.446Z,83.52
2017-09-26T21:43:42.784Z,83.56
2017-09-26T21:46:11.089Z,83.78
2017-09-26T21:48:39.415Z,83.88
2017-09-26T21:51:08.502Z,84.03
2017-09-26T21:53:37.575Z,84.12
2017-09-26T21:56:05.900Z,84.13
2017-09-26T21:58:34.206Z,84.59
2017-09-26T22:01:02.539Z,84.71
2017-09-26T22:03:30.847Z,84.62
2017-09-26T22:05:59.193Z,84.58
2017-09-26T22:08:28.273Z,84.58
2017-09-26T22:10:57.359Z,84.66
2017-09-26T22:13:25.682Z,84.72
2017-09-26T22:15:53.986Z,85.07
2017-09-26T22:18:22.312Z,85.02
2017-09-26T22:20:51.391Z,85.21
2017-09-26T22:23:20.478Z,85.22
2017-09-26T22:25:48.781Z,85.38
2017-09-26T22:28:17.886Z,85.43
2017-09-26T22:30:46.197Z,85.58
2017-09-26T22:33:14.561Z,85.84
2017-09-26T22:35:42.873Z,86.34
2017-09-26T22:38:11.189Z,86.51
2017-09-26T22:40:40.266Z,86.65
2017-09-26T22:43:08.574Z,86.52
2017-09-26T22:45:36.898Z,86.60
2017-09-26T22:48:05.208Z,86.74
2017-09-26T22:50:34.325Z,86.74
2017-09-26T22:53:02.646Z,86.74
2017-09-26T22:55:30.951Z,87.11
2017-09-26T22:58:00.042Z,87.16
2017-09-26T23:00:28.351Z,87.41
2017-09-26T23:02:56.673Z,87.50
2017-09-26T23:05:24.985Z,87.53
2017-09-26T23:07:54.066Z,87.41
2017-09-26T23:10:22.381Z,87.46
2017-09-26T23:12:50.732Z,87.52
2017-09-26T23:15:19.868Z,87.79
2017-09-26T23:17:48.184Z,87.71
2017-09-26T23:20:16.501Z,87.99
2017-09-26T23:22:44.805Z,87.59
2017-09-26T23:25:13.142Z,87.50
2017-09-26T23:27:42.218Z,87.68
2017-09-26T23:30:10.538Z,87.97
2017-09-26T23:32:38.838Z,87.52
2017-09-26T23:35:07.157Z,87.29
2017-09-26T23:37:35.470Z,86.90
2017-09-26T23:40:03.841Z,86.89
2017-09-26T23:42:32.162Z,86.79
2017-09-26T23:45:00.474Z,86.72
2017-09-26T23:47:29.559Z,86.80
2017-09-26T23:49:57.861Z,86.81
2017-09-26T23:52:26.945Z,86.64
2017-09-26T23:54:56.018Z,86.67
2017-09-26T23:57:24.343Z,86.71
2017-09-26T23:59:52.656Z,86.77
